sensor_id;sensor_type;location;lat;lon;timestamp;pressure;altitude;pressure_sealevel;temperature;humidity
706;BME280;21234;48.690;9.016;2024-01-25T00:00:06;97284.13;;;7.84;92.28
706;BME280;21234;48.690;9.016;2024-01-25T00:02:33;97284.13;;;7.84;92.42
706;BME280;21234;48.690;9.016;2024-01-25T00:04:59;97279.31;;;7.86;92.81
706;BME280;21234;48.690;9.016;2024-01-25T00:07:27;97272.47;;;7.83;92.85
706;BME280;21234;48.690;9.016;2024-01-25T00:09:54;97287.88;;;7.83;93.51
706;BME280;21234;48.690;9.016;2024-01-25T00:12:23;97268.28;;;7.81;93.76
706;BME280;21234;48.690;9.016;2024-01-25T00:14:49;97264.34;;;7.83;93.74
706;BME280;21234;48.690;9.016;2024-01-25T00:17:17;97262.03;;;7.87;93.51
706;BME280;21234;48.690;9.016;2024-01-25T00:19:44;97264.97;;;7.85;93.61
706;BME280;21234;48.690;9.016;2024-01-25T00:22:10;97260.59;;;7.84;93.61
706;BME280;21234;48.690;9.016;2024-01-25T00:24:38;97256.00;;;7.85;93.59
706;BME280;21234;48.690;9.016;2024-01-25T00:27:05;97261.00;;;7.88;93.47
706;BME280;21234;48.690;9.016;2024-01-25T00:29:34;97254.75;;;7.87;93.78
706;BME280;21234;48.690;9.016;2024-01-25T00:32:00;97261.22;;;7.93;92.98
706;BME280;21234;48.690;9.016;2024-01-25T00:34:27;97272.25;;;7.91;93.32
706;BME280;21234;48.690;9.016;2024-01-25T00:36:54;97265.16;;;7.97;92.95
706;BME280;21234;48.690;9.016;2024-01-25T00:39:22;97256.22;;;7.96;92.64
706;BME280;21234;48.690;9.016;2024-01-25T00:41:51;97256.00;;;7.98;92.79
706;BME280;21234;48.690;9.016;2024-01-25T00:44:18;97254.13;;;7.98;92.43
706;BME280;21234;48.690;9.016;2024-01-25T00:46:45;97246.00;;;7.98;92.64
706;BME280;21234;48.690;9.016;2024-01-25T00:49:13;97243.94;;;8.00;92.82
706;BME280;21234;48.690;9.016;2024-01-25T00:51:41;97250.81;;;7.96;92.65
706;BME280;21234;48.690;9.016;2024-01-25T00:54:12;97256.63;;;8.00;92.51
706;BME280;21234;48.690;9.016;2024-01-25T00:56:39;97248.50;;;8.00;92.64
706;BME280;21234;48.690;9.016;2024-01-25T00:59:08;97257.88;;;7.97;93.26
706;BME280;21234;48.690;9.016;2024-01-25T01:01:36;97256.22;;;7.96;94.22
706;BME280;21234;48.690;9.016;2024-01-25T01:04:04;97251.63;;;7.84;97.46
706;BME280;21234;48.690;9.016;2024-01-25T01:06:31;97256.84;;;7.85;98.45
706;BME280;21234;48.690;9.016;2024-01-25T01:08:58;97255.59;;;7.81;99.38
706;BME280;21234;48.690;9.016;2024-01-25T01:11:25;97257.91;;;7.78;100.00
706;BME280;21234;48.690;9.016;2024-01-25T01:13:51;97266.84;;;7.78;100.00
706;BME280;21234;48.690;9.016;2024-01-25T01:16:19;97254.56;;;7.75;100.00
706;BME280;21234;48.690;9.016;2024-01-25T01:18:46;97264.34;;;7.77;100.00
706;BME280;21234;48.690;9.016;2024-01-25T01:21:13;97257.06;;;7.77;100.00
706;BME280;21234;48.690;9.016;2024-01-25T01:23:39;97260.63;;;7.78;100.00
706;BME280;21234;48.690;9.016;2024-01-25T01:26:07;97260.63;;;7.78;100.00
706;BME280;21234;48.690;9.016;2024-01-25T01:28:33;97255.00;;;7.79;100.00
706;BME280;21234;48.690;9.016;2024-01-25T01:31:00;97247.47;;;7.81;100.00
706;BME280;21234;48.690;9.016;2024-01-25T01:33:29;97242.06;;;7.81;99.65
706;BME280;21234;48.690;9.016;2024-01-25T01:35:55;97242.88;;;7.82;99.46
706;BME280;21234;48.690;9.016;2024-01-25T01:38:22;97243.53;;;7.77;99.80
706;BME280;21234;48.690;9.016;2024-01-25T01:40:49;97230.84;;;7.78;100.00
706;BME280;21234;48.690;9.016;2024-01-25T01:43:19;97234.38;;;7.78;99.86
706;BME280;21234;48.690;9.016;2024-01-25T01:45:46;97235.41;;;7.77;99.27
706;BME280;21234;48.690;9.016;2024-01-25T01:48:12;97234.59;;;7.77;99.09
706;BME280;21234;48.690;9.016;2024-01-25T01:50:42;97245.41;;;7.77;99.47
706;BME280;21234;48.690;9.016;2024-01-25T01:53:10;97247.06;;;7.78;99.63
706;BME280;21234;48.690;9.016;2024-01-25T01:55:37;97239.16;;;7.76;99.06
706;BME280;21234;48.690;9.016;2024-01-25T01:58:04;97235.81;;;7.81;97.94
706;BME280;21234;48.690;9.016;2024-01-25T02:00:32;97236.03;;;7.79;98.07
706;BME280;21234;48.690;9.016;2024-01-25T02:03:00;97234.97;;;7.80;98.08
706;BME280;21234;48.690;9.016;2024-01-25T02:05:27;97234.16;;;7.80;98.01
706;BME280;21234;48.690;9.016;2024-01-25T02:07:55;97247.69;;;7.80;98.06
706;BME280;21234;48.690;9.016;2024-01-25T02:10:22;97241.47;;;7.79;98.56
706;BME280;21234;48.690;9.016;2024-01-25T02:12:48;97249.78;;;7.78;98.00
706;BME280;21234;48.690;9.016;2024-01-25T02:15:15;97238.97;;;7.78;97.34
706;BME280;21234;48.690;9.016;2024-01-25T02:17:42;97241.88;;;7.76;96.20
706;BME280;21234;48.690;9.016;2024-01-25T02:20:09;97247.47;;;7.81;96.86
706;BME280;21234;48.690;9.016;2024-01-25T02:22:37;97241.84;;;7.83;95.48
706;BME280;21234;48.690;9.016;2024-01-25T02:25:04;97235.38;;;7.84;96.25
706;BME280;21234;48.690;9.016;2024-01-25T02:27:31;97234.38;;;7.78;96.74
706;BME280;21234;48.690;9.016;2024-01-25T02:30:04;97237.28;;;7.77;96.21
706;BME280;21234;48.690;9.016;2024-01-25T02:32:31;97229.59;;;7.73;96.47
706;BME280;21234;48.690;9.016;2024-01-25T02:34:58;97226.66;;;7.75;96.50
706;BME280;21234;48.690;9.016;2024-01-25T02:37:24;97238.94;;;7.71;96.15
706;BME280;21234;48.690;9.016;2024-01-25T02:39:53;97235.63;;;7.69;96.71
706;BME280;21234;48.690;9.016;2024-01-25T02:42:19;97233.53;;;7.64;98.85
706;BME280;21234;48.690;9.016;2024-01-25T02:44:46;97229.16;;;7.57;100.00
706;BME280;21234;48.690;9.016;2024-01-25T02:47:14;97217.91;;;7.53;100.00
706;BME280;21234;48.690;9.016;2024-01-25T02:49:41;97221.88;;;7.44;100.00
706;BME280;21234;48.690;9.016;2024-01-25T02:52:07;97217.94;;;7.40;100.00
706;BME280;21234;48.690;9.016;2024-01-25T02:54:34;97215.84;;;7.42;100.00
706;BME280;21234;48.690;9.016;2024-01-25T02:57:03;97216.25;;;7.39;100.00
706;BME280;21234;48.690;9.016;2024-01-25T02:59:30;97228.31;;;7.36;100.00
706;BME280;21234;48.690;9.016;2024-01-25T03:01:57;97222.09;;;7.36;100.00
706;BME280;21234;48.690;9.016;2024-01-25T03:04:23;97224.38;;;7.32;100.00
706;BME280;21234;48.690;9.016;2024-01-25T03:06:50;97236.22;;;7.38;100.00
706;BME280;21234;48.690;9.016;2024-01-25T03:09:17;97230.00;;;7.37;100.00
706;BME280;21234;48.690;9.016;2024-01-25T03:11:43;97229.78;;;7.32;100.00
706;BME280;21234;48.690;9.016;2024-01-25T03:14:11;97227.06;;;7.32;100.00
706;BME280;21234;48.690;9.016;2024-01-25T03:16:38;97236.22;;;7.31;100.00
706;BME280;21234;48.690;9.016;2024-01-25T03:19:05;97233.72;;;7.30;100.00
706;BME280;21234;48.690;9.016;2024-01-25T03:21:31;97229.75;;;7.26;100.00
706;BME280;21234;48.690;9.016;2024-01-25T03:23:58;97227.69;;;7.28;100.00
706;BME280;21234;48.690;9.016;2024-01-25T03:26:26;97233.28;;;7.26;100.00
706;BME280;21234;48.690;9.016;2024-01-25T03:28:53;97234.13;;;7.27;100.00
706;BME280;21234;48.690;9.016;2024-01-25T03:31:21;97244.31;;;7.25;100.00
706;BME280;21234;48.690;9.016;2024-01-25T03:33:48;97246.00;;;7.26;100.00
706;BME280;21234;48.690;9.016;2024-01-25T03:36:15;97247.03;;;7.25;100.00
706;BME280;21234;48.690;9.016;2024-01-25T03:38:42;97252.44;;;7.25;100.00
706;BME280;21234;48.690;9.016;2024-01-25T03:41:08;97254.31;;;7.24;100.00
706;BME280;21234;48.690;9.016;2024-01-25T03:43:35;97252.44;;;7.25;100.00
706;BME280;21234;48.690;9.016;2024-01-25T03:46:02;97260.34;;;7.26;100.00
706;BME280;21234;48.690;9.016;2024-01-25T03:48:30;97257.63;;;7.26;100.00
706;BME280;21234;48.690;9.016;2024-01-25T03:50:57;97266.38;;;7.28;100.00
706;BME280;21234;48.690;9.016;2024-01-25T03:53:24;97271.78;;;7.28;100.00
706;BME280;21234;48.690;9.016;2024-01-25T03:55:50;97269.09;;;7.28;100.00
706;BME280;21234;48.690;9.016;2024-01-25T03:58:17;97275.75;;;7.26;100.00
706;BME280;21234;48.690;9.016;2024-01-25T04:00:44;97297.81;;;7.29;99.98
706;BME280;21234;48.690;9.016;2024-01-25T04:03:11;97298.00;;;7.28;100.00
706;BME280;21234;48.690;9.016;2024-01-25T04:05:39;97293.22;;;7.30;100.00
706;BME280;21234;48.690;9.016;2024-01-25T04:08:06;97299.88;;;7.27;99.86
706;BME280;21234;48.690;9.016;2024-01-25T04:10:33;97304.44;;;7.27;100.00
706;BME280;21234;48.690;9.016;2024-01-25T04:12:59;97308.63;;;7.29;100.00
706;BME280;21234;48.690;9.016;2024-01-25T04:15:27;97302.38;;;7.29;99.85
706;BME280;21234;48.690;9.016;2024-01-25T04:17:54;97301.75;;;7.27;98.94
706;BME280;21234;48.690;9.016;2024-01-25T04:20:21;97316.50;;;7.24;98.07
706;BME280;21234;48.690;9.016;2024-01-25T04:22:49;97315.28;;;7.33;98.91
706;BME280;21234;48.690;9.016;2024-01-25T04:25:16;97313.81;;;7.31;98.88
706;BME280;21234;48.690;9.016;2024-01-25T04:27:43;97319.88;;;7.33;98.89
706;BME280;21234;48.690;9.016;2024-01-25T04:30:10;97316.13;;;7.34;99.10
706;BME280;21234;48.690;9.016;2024-01-25T04:32:36;97322.34;;;7.28;97.83
706;BME280;21234;48.690;9.016;2024-01-25T04:35:04;97317.13;;;7.26;97.95
706;BME280;21234;48.690;9.016;2024-01-25T04:37:30;97319.00;;;7.26;97.55
706;BME280;21234;48.690;9.016;2024-01-25T04:39:58;97314.41;;;7.20;96.99
706;BME280;21234;48.690;9.016;2024-01-25T04:42:25;97314.22;;;7.21;97.52
706;BME280;21234;48.690;9.016;2024-01-25T04:44:53;97328.13;;;7.18;96.22
706;BME280;21234;48.690;9.016;2024-01-25T04:47:19;97325.63;;;7.17;95.65
706;BME280;21234;48.690;9.016;2024-01-25T04:49:46;97332.50;;;7.19;96.55
706;BME280;21234;48.690;9.016;2024-01-25T04:52:13;97330.44;;;7.15;97.22
706;BME280;21234;48.690;9.016;2024-01-25T04:54:39;97333.16;;;7.15;96.53
706;BME280;21234;48.690;9.016;2024-01-25T04:57:07;97343.31;;;7.13;96.12
706;BME280;21234;48.690;9.016;2024-01-25T04:59:34;97338.09;;;7.04;96.50
706;BME280;21234;48.690;9.016;2024-01-25T05:02:01;97341.00;;;7.03;96.57
706;BME280;21234;48.690;9.016;2024-01-25T05:04:28;97348.66;;;6.99;96.13
706;BME280;21234;48.690;9.016;2024-01-25T05:06:56;97357.63;;;7.00;96.53
706;BME280;21234;48.690;9.016;2024-01-25T05:09:23;97349.50;;;7.00;96.93
706;BME280;21234;48.690;9.016;2024-01-25T05:11:50;97357.81;;;6.98;96.96
706;BME280;21234;48.690;9.016;2024-01-25T05:14:18;97358.00;;;6.97;96.87
706;BME280;21234;48.690;9.016;2024-01-25T05:16:45;97349.69;;;6.98;96.91
706;BME280;21234;48.690;9.016;2024-01-25T05:19:11;97339.69;;;6.92;96.97
706;BME280;21234;48.690;9.016;2024-01-25T05:21:38;97338.84;;;6.92;96.89
706;BME280;21234;48.690;9.016;2024-01-25T05:24:05;97345.09;;;6.92;96.62
706;BME280;21234;48.690;9.016;2024-01-25T05:26:33;97342.16;;;6.87;96.11
706;BME280;21234;48.690;9.016;2024-01-25T05:28:59;97347.97;;;6.84;96.82
706;BME280;21234;48.690;9.016;2024-01-25T05:31:27;97348.78;;;6.85;97.51
706;BME280;21234;48.690;9.016;2024-01-25T05:33:54;97340.88;;;6.77;97.30
706;BME280;21234;48.690;9.016;2024-01-25T05:36:21;97349.78;;;6.70;98.06
706;BME280;21234;48.690;9.016;2024-01-25T05:38:48;97356.22;;;6.69;98.24
706;BME280;21234;48.690;9.016;2024-01-25T05:41:16;97352.03;;;6.67;98.72
706;BME280;21234;48.690;9.016;2024-01-25T05:43:45;97357.00;;;6.63;99.07
706;BME280;21234;48.690;9.016;2024-01-25T05:46:15;97366.53;;;6.59;99.11
706;BME280;21234;48.690;9.016;2024-01-25T05:48:45;97375.03;;;6.56;99.68
706;BME280;21234;48.690;9.016;2024-01-25T05:51:12;97381.66;;;6.54;99.93
706;BME280;21234;48.690;9.016;2024-01-25T05:53:39;97375.44;;;6.53;99.99
706;BME280;21234;48.690;9.016;2024-01-25T05:56:06;97379.78;;;6.48;100.00
706;BME280;21234;48.690;9.016;2024-01-25T05:58:33;97381.59;;;6.40;100.00
706;BME280;21234;48.690;9.016;2024-01-25T06:01:00;97381.59;;;6.40;100.00
706;BME280;21234;48.690;9.016;2024-01-25T06:03:26;97386.16;;;6.40;100.00
706;BME280;21234;48.690;9.016;2024-01-25T06:05:54;97388.22;;;6.38;100.00
706;BME280;21234;48.690;9.016;2024-01-25T06:08:21;97381.16;;;6.37;100.00
706;BME280;21234;48.690;9.016;2024-01-25T06:10:48;97390.09;;;6.37;100.00
706;BME280;21234;48.690;9.016;2024-01-25T06:13:15;97383.06;;;6.43;100.00
706;BME280;21234;48.690;9.016;2024-01-25T06:15:42;97381.41;;;6.42;100.00
706;BME280;21234;48.690;9.016;2024-01-25T06:18:08;97386.75;;;6.35;100.00
706;BME280;21234;48.690;9.016;2024-01-25T06:20:34;97389.66;;;6.34;100.00
706;BME280;21234;48.690;9.016;2024-01-25T06:23:02;97386.88;;;6.27;100.00
706;BME280;21234;48.690;9.016;2024-01-25T06:25:29;97385.03;;;6.28;100.00
706;BME280;21234;48.690;9.016;2024-01-25T06:27:56;97382.91;;;6.23;100.00
706;BME280;21234;48.690;9.016;2024-01-25T06:30:23;97369.78;;;6.20;100.00
706;BME280;21234;48.690;9.016;2024-01-25T06:32:50;97368.94;;;6.13;100.00
706;BME280;21234;48.690;9.016;2024-01-25T06:35:17;97374.53;;;6.12;100.00
706;BME280;21234;48.690;9.016;2024-01-25T06:37:44;97376.97;;;6.06;100.00
706;BME280;21234;48.690;9.016;2024-01-25T06:40:12;97376.97;;;6.06;100.00
706;BME280;21234;48.690;9.016;2024-01-25T06:42:39;97375.03;;;6.00;100.00
706;BME280;21234;48.690;9.016;2024-01-25T06:45:07;97382.69;;;5.97;100.00
706;BME280;21234;48.690;9.016;2024-01-25T06:47:34;97379.34;;;5.95;100.00
706;BME280;21234;48.690;9.016;2024-01-25T06:50:01;97382.81;;;5.89;100.00
706;BME280;21234;48.690;9.016;2024-01-25T06:52:28;97383.41;;;5.84;100.00
706;BME280;21234;48.690;9.016;2024-01-25T06:54:55;97391.69;;;5.83;100.00
706;BME280;21234;48.690;9.016;2024-01-25T06:57:23;97388.97;;;5.83;100.00
706;BME280;21234;48.690;9.016;2024-01-25T06:59:50;97384.16;;;5.78;100.00
706;BME280;21234;48.690;9.016;2024-01-25T07:02:16;97394.94;;;5.78;100.00
706;BME280;21234;48.690;9.016;2024-01-25T07:04:43;97393.41;;;5.69;100.00
706;BME280;21234;48.690;9.016;2024-01-25T07:07:10;97393.41;;;5.69;100.00
706;BME280;21234;48.690;9.016;2024-01-25T07:09:37;97388.56;;;5.64;100.00
706;BME280;21234;48.690;9.016;2024-01-25T07:12:04;97380.09;;;5.67;100.00
706;BME280;21234;48.690;9.016;2024-01-25T07:14:32;97396.09;;;5.69;100.00
706;BME280;21234;48.690;9.016;2024-01-25T07:16:59;97395.72;;;5.72;100.00
706;BME280;21234;48.690;9.016;2024-01-25T07:19:26;97381.59;;;5.70;100.00
706;BME280;21234;48.690;9.016;2024-01-25T07:21:52;97383.50;;;5.76;100.00
706;BME280;21234;48.690;9.016;2024-01-25T07:24:19;97386.28;;;5.83;100.00
706;BME280;21234;48.690;9.016;2024-01-25T07:26:48;97392.91;;;5.80;100.00
706;BME280;21234;48.690;9.016;2024-01-25T07:29:16;97397.31;;;5.88;100.00
706;BME280;21234;48.690;9.016;2024-01-25T07:31:44;97402.16;;;5.92;100.00
706;BME280;21234;48.690;9.016;2024-01-25T07:34:10;97407.63;;;5.99;100.00
706;BME280;21234;48.690;9.016;2024-01-25T07:36:38;97413.72;;;6.07;100.00
706;BME280;21234;48.690;9.016;2024-01-25T07:39:05;97410.28;;;6.20;100.00
706;BME280;21234;48.690;9.016;2024-01-25T07:41:34;97414.72;;;6.28;100.00
706;BME280;21234;48.690;9.016;2024-01-25T07:44:02;97418.81;;;6.73;99.88
706;BME280;21234;48.690;9.016;2024-01-25T07:46:28;97410.84;;;7.54;94.67
706;BME280;21234;48.690;9.016;2024-01-25T07:49:00;97413.91;;;7.98;90.14
706;BME280;21234;48.690;9.016;2024-01-25T07:51:28;97420.38;;;8.04;88.67
706;BME280;21234;48.690;9.016;2024-01-25T07:53:55;97426.91;;;7.62;89.03
706;BME280;21234;48.690;9.016;2024-01-25T07:56:22;97424.28;;;7.27;92.07
706;BME280;21234;48.690;9.016;2024-01-25T07:58:49;97422.13;;;7.10;93.11
706;BME280;21234;48.690;9.016;2024-01-25T08:01:17;97417.72;;;7.02;93.45
706;BME280;21234;48.690;9.016;2024-01-25T08:03:44;97413.94;;;6.62;95.59
706;BME280;21234;48.690;9.016;2024-01-25T08:06:12;97410.69;;;6.73;96.36
706;BME280;21234;48.690;9.016;2024-01-25T08:08:39;97400.78;;;8.28;90.74
706;BME280;21234;48.690;9.016;2024-01-25T08:11:06;97398.56;;;9.23;80.93
706;BME280;21234;48.690;9.016;2024-01-25T08:13:33;97403.53;;;9.39;79.57
706;BME280;21234;48.690;9.016;2024-01-25T08:16:00;97405.63;;;8.33;83.07
706;BME280;21234;48.690;9.016;2024-01-25T08:18:27;97401.16;;;7.92;86.81
706;BME280;21234;48.690;9.016;2024-01-25T08:20:55;97393.91;;;7.25;90.69
706;BME280;21234;48.690;9.016;2024-01-25T08:23:23;97386.28;;;6.94;92.66
706;BME280;21234;48.690;9.016;2024-01-25T08:25:50;97389.72;;;6.75;94.80
706;BME280;21234;48.690;9.016;2024-01-25T08:28:17;97389.22;;;6.65;95.80
706;BME280;21234;48.690;9.016;2024-01-25T08:30:44;97376.47;;;6.52;97.20
706;BME280;21234;48.690;9.016;2024-01-25T08:33:11;97379.72;;;6.41;98.04
706;BME280;21234;48.690;9.016;2024-01-25T08:35:38;97384.94;;;6.43;98.59
706;BME280;21234;48.690;9.016;2024-01-25T08:38:06;97390.41;;;6.49;98.19
706;BME280;21234;48.690;9.016;2024-01-25T08:40:34;97398.72;;;6.54;98.34
706;BME280;21234;48.690;9.016;2024-01-25T08:43:01;97395.22;;;6.60;97.86
706;BME280;21234;48.690;9.016;2024-01-25T08:45:27;97406.22;;;6.59;97.30
706;BME280;21234;48.690;9.016;2024-01-25T08:47:54;97411.69;;;6.65;97.41
706;BME280;21234;48.690;9.016;2024-01-25T08:50:21;97416.53;;;6.77;96.50
706;BME280;21234;48.690;9.016;2024-01-25T08:52:48;97416.31;;;6.71;96.24
706;BME280;21234;48.690;9.016;2024-01-25T08:55:14;97407.47;;;6.91;95.56
706;BME280;21234;48.690;9.016;2024-01-25T08:57:42;97413.78;;;7.04;95.05
706;BME280;21234;48.690;9.016;2024-01-25T09:00:10;97425.09;;;7.21;94.49
706;BME280;21234;48.690;9.016;2024-01-25T09:02:36;97429.53;;;7.35;93.18
706;BME280;21234;48.690;9.016;2024-01-25T09:05:05;97444.75;;;7.50;91.37
706;BME280;21234;48.690;9.016;2024-01-25T09:07:32;97446.84;;;7.48;89.91
706;BME280;21234;48.690;9.016;2024-01-25T09:09:57;97438.75;;;7.54;90.50
706;BME280;21234;48.690;9.016;2024-01-25T09:12:25;97433.06;;;7.36;88.84
706;BME280;21234;48.690;9.016;2024-01-25T09:14:56;97431.66;;;7.47;89.80
706;BME280;21234;48.690;9.016;2024-01-25T09:17:23;97439.34;;;7.43;88.23
706;BME280;21234;48.690;9.016;2024-01-25T09:19:50;97442.06;;;7.50;89.02
706;BME280;21234;48.690;9.016;2024-01-25T09:22:17;97446.50;;;7.64;88.72
706;BME280;21234;48.690;9.016;2024-01-25T09:24:45;97452.09;;;7.56;87.30
706;BME280;21234;48.690;9.016;2024-01-25T09:27:12;97452.50;;;7.59;87.99
706;BME280;21234;48.690;9.016;2024-01-25T09:29:39;97450.31;;;7.89;88.69
706;BME280;21234;48.690;9.016;2024-01-25T09:32:07;97460.06;;;7.70;86.61
706;BME280;21234;48.690;9.016;2024-01-25T09:34:35;97461.88;;;7.57;86.44
706;BME280;21234;48.690;9.016;2024-01-25T09:37:02;97459.84;;;7.72;87.20
706;BME280;21234;48.690;9.016;2024-01-25T09:39:29;97456.38;;;7.91;87.29
706;BME280;21234;48.690;9.016;2024-01-25T09:41:56;97460.91;;;7.78;85.38
706;BME280;21234;48.690;9.016;2024-01-25T09:44:22;97464.88;;;7.82;86.39
706;BME280;21234;48.690;9.016;2024-01-25T09:46:50;97466.13;;;7.86;85.88
706;BME280;21234;48.690;9.016;2024-01-25T09:49:19;97468.44;;;7.89;85.72
706;BME280;21234;48.690;9.016;2024-01-25T09:51:47;97470.72;;;7.85;86.91
706;BME280;21234;48.690;9.016;2024-01-25T09:54:17;97466.59;;;8.02;86.77
706;BME280;21234;48.690;9.016;2024-01-25T09:56:45;97479.53;;;8.14;86.05
706;BME280;21234;48.690;9.016;2024-01-25T09:59:13;97475.59;;;8.23;86.37
706;BME280;21234;48.690;9.016;2024-01-25T10:01:40;97477.47;;;8.29;84.86
706;BME280;21234;48.690;9.016;2024-01-25T10:04:07;97469.97;;;8.31;83.01
706;BME280;21234;48.690;9.016;2024-01-25T10:06:35;97471.63;;;8.12;82.92
706;BME280;21234;48.690;9.016;2024-01-25T10:09:04;97475.59;;;8.09;83.91
706;BME280;21234;48.690;9.016;2024-01-25T10:11:35;97472.88;;;8.23;85.25
706;BME280;21234;48.690;9.016;2024-01-25T10:14:03;97475.81;;;8.28;84.69
706;BME280;21234;48.690;9.016;2024-01-25T10:16:30;97481.69;;;8.38;85.18
706;BME280;21234;48.690;9.016;2024-01-25T10:18:57;97478.56;;;8.34;85.04
706;BME280;21234;48.690;9.016;2024-01-25T10:21:24;97475.25;;;8.39;84.68
706;BME280;21234;48.690;9.016;2024-01-25T10:23:54;97470.84;;;8.58;85.50
706;BME280;21234;48.690;9.016;2024-01-25T10:26:26;97466.03;;;8.99;85.88
706;BME280;21234;48.690;9.016;2024-01-25T10:28:53;97459.16;;;9.03;82.22
706;BME280;21234;48.690;9.016;2024-01-25T10:31:22;97457.22;;;9.10;83.03
706;BME280;21234;48.690;9.016;2024-01-25T10:33:51;97458.47;;;9.15;80.61
706;BME280;21234;48.690;9.016;2024-01-25T10:36:20;97451.22;;;9.02;79.24
706;BME280;21234;48.690;9.016;2024-01-25T10:38:48;97458.31;;;8.83;80.00
706;BME280;21234;48.690;9.016;2024-01-25T10:41:19;97458.34;;;8.77;81.28
706;BME280;21234;48.690;9.016;2024-01-25T10:43:46;97461.28;;;8.68;81.51
706;BME280;21234;48.690;9.016;2024-01-25T10:46:12;97459.59;;;8.67;82.10
706;BME280;21234;48.690;9.016;2024-01-25T10:48:39;97450.00;;;8.52;81.70
706;BME280;21234;48.690;9.016;2024-01-25T10:51:06;97452.09;;;8.56;82.02
706;BME280;21234;48.690;9.016;2024-01-25T10:53:35;97456.25;;;8.65;82.36
706;BME280;21234;48.690;9.016;2024-01-25T10:56:03;97453.94;;;8.82;80.33
706;BME280;21234;48.690;9.016;2024-01-25T10:58:32;97451.03;;;8.90;79.79
706;BME280;21234;48.690;9.016;2024-01-25T11:01:01;97447.88;;;9.06;80.87
706;BME280;21234;48.690;9.016;2024-01-25T11:03:29;97442.06;;;8.83;79.71
706;BME280;21234;48.690;9.016;2024-01-25T11:06:06;97439.97;;;8.85;79.92
706;BME280;21234;48.690;9.016;2024-01-25T11:08:33;97439.53;;;9.01;80.04
706;BME280;21234;48.690;9.016;2024-01-25T11:11:05;97431.75;;;9.18;77.54
706;BME280;21234;48.690;9.016;2024-01-25T11:13:35;97425.72;;;9.16;75.48
706;BME280;21234;48.690;9.016;2024-01-25T11:16:15;97425.91;;;9.21;76.08
706;BME280;21234;48.690;9.016;2024-01-25T11:18:49;97416.06;;;9.33;76.05
706;BME280;21234;48.690;9.016;2024-01-25T11:21:25;97409.81;;;9.26;75.85
706;BME280;21234;48.690;9.016;2024-01-25T11:24:00;97410.88;;;9.25;77.01
706;BME280;21234;48.690;9.016;2024-01-25T11:26:27;97410.06;;;9.18;76.82
706;BME280;21234;48.690;9.016;2024-01-25T11:29:12;97401.50;;;9.21;77.39
706;BME280;21234;48.690;9.016;2024-01-25T11:31:43;97389.03;;;9.07;76.92
706;BME280;21234;48.690;9.016;2024-01-25T11:34:14;97386.06;;;9.15;76.86
706;BME280;21234;48.690;9.016;2024-01-25T11:36:52;97388.63;;;8.97;75.93
706;BME280;21234;48.690;9.016;2024-01-25T11:39:32;97379.41;;;9.11;76.37
706;BME280;21234;48.690;9.016;2024-01-25T11:42:01;97379.34;;;9.24;76.66
706;BME280;21234;48.690;9.016;2024-01-25T11:44:41;97380.44;;;9.17;75.87
706;BME280;21234;48.690;9.016;2024-01-25T11:47:21;97373.91;;;9.31;76.67
706;BME280;21234;48.690;9.016;2024-01-25T11:50:06;97375.22;;;9.60;76.31
706;BME280;21234;48.690;9.016;2024-01-25T11:52:38;97380.41;;;9.68;73.42
706;BME280;21234;48.690;9.016;2024-01-25T11:55:14;97383.47;;;9.78;74.24
706;BME280;21234;48.690;9.016;2024-01-25T11:57:44;97382.38;;;9.86;75.38
706;BME280;21234;48.690;9.016;2024-01-25T12:00:22;97378.41;;;9.88;74.63
706;BME280;21234;48.690;9.016;2024-01-25T12:02:57;97375.94;;;9.80;74.15
706;BME280;21234;48.690;9.016;2024-01-25T12:05:39;97375.63;;;9.63;74.05
706;BME280;21234;48.690;9.016;2024-01-25T12:08:19;97371.31;;;9.49;73.29
706;BME280;21234;48.690;9.016;2024-01-25T12:11:02;97363.28;;;9.29;74.28
706;BME280;21234;48.690;9.016;2024-01-25T12:13:40;97366.84;;;9.23;75.47
706;BME280;21234;48.690;9.016;2024-01-25T12:16:16;97361.41;;;9.30;74.54
706;BME280;21234;48.690;9.016;2024-01-25T12:18:56;97364.63;;;9.52;76.09
706;BME280;21234;48.690;9.016;2024-01-25T12:21:36;97356.59;;;9.70;74.80
706;BME280;21234;48.690;9.016;2024-01-25T12:24:11;97355.75;;;9.69;73.07
706;BME280;21234;48.690;9.016;2024-01-25T12:26:39;97359.53;;;9.68;72.57
706;BME280;21234;48.690;9.016;2024-01-25T12:29:17;97351.16;;;9.70;73.85
706;BME280;21234;48.690;9.016;2024-01-25T12:31:53;97348.59;;;9.75;73.19
706;BME280;21234;48.690;9.016;2024-01-25T12:34:28;97340.94;;;9.97;72.72
706;BME280;21234;48.690;9.016;2024-01-25T12:37:02;97340.59;;;9.87;69.19
706;BME280;21234;48.690;9.016;2024-01-25T12:39:47;97331.56;;;9.93;72.37
706;BME280;21234;48.690;9.016;2024-01-25T12:42:24;97334.03;;;10.01;72.17
706;BME280;21234;48.690;9.016;2024-01-25T12:44:58;97328.06;;;10.10;72.60
706;BME280;21234;48.690;9.016;2024-01-25T12:47:37;97326.25;;;10.04;70.99
706;BME280;21234;48.690;9.016;2024-01-25T12:50:12;97323.91;;;10.08;69.45
706;BME280;21234;48.690;9.016;2024-01-25T12:52:52;97329.66;;;10.25;69.13
706;BME280;21234;48.690;9.016;2024-01-25T12:55:38;97319.22;;;10.47;68.24
706;BME280;21234;48.690;9.016;2024-01-25T13:01:11;97306.22;;;10.30;67.54
706;BME280;21234;48.690;9.016;2024-01-25T13:03:55;97297.00;;;10.31;68.49
706;BME280;21234;48.690;9.016;2024-01-25T13:06:29;97300.94;;;10.35;65.99
706;BME280;21234;48.690;9.016;2024-01-25T13:09:06;97290.19;;;10.40;65.81
706;BME280;21234;48.690;9.016;2024-01-25T13:11:47;97291.13;;;10.53;65.74
706;BME280;21234;48.690;9.016;2024-01-25T13:14:18;97294.94;;;10.70;65.04
706;BME280;21234;48.690;9.016;2024-01-25T13:16:50;97289.25;;;10.53;64.52
706;BME280;21234;48.690;9.016;2024-01-25T13:19:18;97288.91;;;10.68;65.22
706;BME280;21234;48.690;9.016;2024-01-25T13:21:45;97278.84;;;10.68;65.82
706;BME280;21234;48.690;9.016;2024-01-25T13:24:11;97278.38;;;10.90;63.92
706;BME280;21234;48.690;9.016;2024-01-25T13:26:38;97276.91;;;11.05;62.83
706;BME280;21234;48.690;9.016;2024-01-25T13:29:05;97268.06;;;11.10;62.29
706;BME280;21234;48.690;9.016;2024-01-25T13:31:32;97259.19;;;11.03;63.08
706;BME280;21234;48.690;9.016;2024-01-25T13:33:58;97261.16;;;10.96;64.08
706;BME280;21234;48.690;9.016;2024-01-25T13:36:26;97265.06;;;10.82;64.00
706;BME280;21234;48.690;9.016;2024-01-25T13:38:53;97250.13;;;10.72;64.78